Time;durP1;ratioP1;P1;durP2;ratioP2;P2;SDS_P1;SDS_P2;PMS_P1;PMS_P2;Temp;Humidity;BMP_temperature;BMP_pressure;BME280_temperature;BME280_humidity;BME280_pressure;Samples;Min_cycle;Max_cycle;Signal;HPM_P1;HPM_P2
2021/11/02 00:00:25;;;;;;;6.57;6.47;;;20.40;99.90;;;;;;4992135;28;20446;-48
2021/11/02 00:02:52;;;;;;;6.73;6.60;;;20.30;99.90;;;;;;4992253;28;20445;-52
2021/11/02 00:05:20;;;;;;;7.10;6.93;;;20.30;99.90;;;;;;4992241;28;20450;-51
2021/11/02 00:07:47;;;;;;;7.50;7.30;;;20.30;99.90;;;;;;4992259;28;20838;-49
2021/11/02 00:10:14;;;;;;;7.07;6.87;;;20.30;99.90;;;;;;4991953;28;20449;-49
2021/11/02 00:12:42;;;;;;;6.60;6.50;;;20.30;99.90;;;;;;4991918;28;20490;-48
2021/11/02 00:15:09;;;;;;;6.83;6.63;;;20.30;99.90;;;;;;4992161;28;20522;-51
2021/11/02 00:17:38;;;;;;;6.80;6.60;;;20.20;99.90;;;;;;4992037;28;20474;-49
2021/11/02 00:20:07;;;;;;;7.30;7.17;;;20.20;99.90;;;;;;4992074;28;20810;-51
2021/11/02 00:22:36;;;;;;;7.40;7.20;;;20.20;99.90;;;;;;4992104;28;20807;-48
2021/11/02 00:25:08;;;;;;;7.20;6.90;;;20.20;99.90;;;;;;4992059;28;20517;-52
2021/11/02 00:27:37;;;;;;;7.00;6.80;;;20.20;99.90;;;;;;4992058;28;21011;-48
2021/11/02 00:30:07;;;;;;;6.90;6.60;;;20.20;99.90;;;;;;4991777;28;20486;-49
2021/11/02 00:32:33;;;;;;;6.70;6.40;;;20.10;99.90;;;;;;4991863;28;20483;-49
2021/11/02 00:35:00;;;;;;;7.07;6.97;;;20.10;99.90;;;;;;4992065;28;20501;-48
2021/11/02 00:37:27;;;;;;;6.60;6.50;;;20.10;99.90;;;;;;4991929;28;20819;-52
2021/11/02 00:39:55;;;;;;;7.30;7.10;;;20.10;99.90;;;;;;4991718;28;20581;-53
2021/11/02 00:42:27;;;;;;;6.93;6.73;;;20.10;99.90;;;;;;4991920;28;20454;-48
2021/11/02 00:44:56;;;;;;;7.20;7.00;;;20.10;99.90;;;;;;4992030;28;20454;-54
2021/11/02 00:47:25;;;;;;;8.20;7.80;;;20.10;99.90;;;;;;4991751;28;20510;-55
2021/11/02 00:49:52;;;;;;;6.67;6.50;;;20.10;99.90;;;;;;4991588;28;20446;-53
2021/11/02 00:52:18;;;;;;;6.40;6.20;;;20.10;99.90;;;;;;4991811;28;20983;-50
2021/11/02 00:54:45;;;;;;;8.17;7.87;;;20.10;99.90;;;;;;4991885;28;20788;-50
2021/11/02 00:57:13;;;;;;;7.17;6.97;;;20.00;99.90;;;;;;4991648;28;20474;-51
2021/11/02 00:59:40;;;;;;;6.77;6.67;;;20.00;99.90;;;;;;4993949;28;20450;-53
2021/11/02 01:02:08;;;;;;;6.93;6.73;;;20.00;99.90;;;;;;4995424;28;20443;-48
2021/11/02 01:04:35;;;;;;;6.50;6.40;;;20.00;99.90;;;;;;4995360;28;20443;-48
2021/11/02 01:07:02;;;;;;;6.93;6.73;;;20.00;99.90;;;;;;4995241;28;20802;-49
2021/11/02 01:09:29;;;;;;;7.00;6.60;;;20.00;99.90;;;;;;4995152;28;20459;-49
2021/11/02 01:11:55;;;;;;;7.47;7.27;;;20.00;99.90;;;;;;4995236;28;20458;-48
2021/11/02 01:14:23;;;;;;;6.67;6.50;;;19.90;99.90;;;;;;4995081;28;20482;-50
2021/11/02 01:16:50;;;;;;;6.80;6.60;;;19.90;99.90;;;;;;4995076;28;20506;-51
2021/11/02 01:19:17;;;;;;;6.50;6.40;;;19.90;99.90;;;;;;4994912;28;20450;-48
2021/11/02 01:21:43;;;;;;;6.90;6.80;;;20.00;99.90;;;;;;4995153;28;20446;-48
2021/11/02 01:24:10;;;;;;;6.87;6.67;;;20.00;99.90;;;;;;4995059;28;20443;-54
2021/11/02 01:26:37;;;;;;;6.60;6.50;;;19.90;99.90;;;;;;4994932;28;20813;-52
2021/11/02 01:29:04;;;;;;;6.47;6.37;;;19.90;99.90;;;;;;4994776;28;20455;-48
2021/11/02 01:31:32;;;;;;;6.70;6.50;;;19.90;99.90;;;;;;4994896;28;20454;-56
2021/11/02 01:33:58;;;;;;;6.37;6.17;;;19.90;99.90;;;;;;4994806;28;20479;-54
2021/11/02 01:36:25;;;;;;;7.00;6.90;;;19.90;99.90;;;;;;4994857;28;20799;-51
2021/11/02 01:38:52;;;;;;;6.40;6.30;;;19.90;99.90;;;;;;4994551;28;20539;-53
2021/11/02 01:41:22;;;;;;;6.63;6.47;;;19.90;99.90;;;;;;4994820;28;20794;-49
2021/11/02 01:43:49;;;;;;;6.67;6.37;;;19.80;99.90;;;;;;4994882;28;20525;-51
2021/11/02 01:46:24;;;;;;;6.60;6.40;;;19.80;99.90;;;;;;4994603;28;20451;-49
2021/11/02 01:48:53;;;;;;;6.47;6.37;;;19.80;99.90;;;;;;4994338;28;20481;-53
2021/11/02 01:51:21;;;;;;;7.13;6.93;;;19.80;99.90;;;;;;4994429;28;20602;-51
2021/11/02 01:53:49;;;;;;;6.40;6.30;;;19.80;99.90;;;;;;4994519;28;20909;-49
2021/11/02 01:56:17;;;;;;;7.07;6.80;;;19.80;99.90;;;;;;4994494;28;20458;-50
2021/11/02 01:58:46;;;;;;;6.47;6.37;;;19.70;99.90;;;;;;4994312;28;20479;-52
2021/11/02 02:01:17;;;;;;;6.40;6.20;;;19.70;99.90;;;;;;4994414;28;20999;-48
2021/11/02 02:03:55;;;;;;;6.47;6.37;;;19.70;99.90;;;;;;4994404;28;20450;-49
2021/11/02 02:06:34;;;;;;;6.30;6.20;;;19.70;99.90;;;;;;4994487;28;20842;-52
2021/11/02 02:09:08;;;;;;;6.27;6.17;;;19.70;99.90;;;;;;4994040;28;20470;-52
2021/11/02 02:11:45;;;;;;;6.60;6.40;;;19.70;99.90;;;;;;4994136;28;20470;-48
2021/11/02 02:14:16;;;;;;;6.87;6.67;;;19.70;99.90;;;;;;4994058;28;20489;-52
2021/11/02 02:16:46;;;;;;;6.67;6.57;;;19.60;99.90;;;;;;4994117;28;20487;-48
2021/11/02 02:19:39;;;;;;;6.57;6.37;;;19.60;99.90;;;;;;4993817;28;20455;-48
2021/11/02 02:22:20;;;;;;;6.70;6.50;;;19.60;99.90;;;;;;4994135;28;20545;-49
2021/11/02 02:27:27;;;;;;;6.60;6.40;;;19.60;99.90;;;;;;4964346;28;20512;-47
2021/11/02 02:29:56;;;;;;;7.03;6.83;;;19.60;99.90;;;;;;4974952;28;20941;-47
2021/11/02 02:32:26;;;;;;;6.90;6.70;;;19.60;99.90;;;;;;4975246;28;20451;-47
2021/11/02 02:34:58;;;;;;;6.47;6.37;;;19.60;99.90;;;;;;4975489;28;20506;-47
2021/11/02 02:37:26;;;;;;;6.87;6.67;;;19.60;99.90;;;;;;4975339;28;20463;-47
2021/11/02 02:39:55;;;;;;;7.13;6.93;;;19.50;99.90;;;;;;4975674;28;20447;-48
2021/11/02 02:42:23;;;;;;;6.30;6.10;;;19.50;99.90;;;;;;4975178;28;20447;-48
2021/11/02 02:44:51;;;;;;;6.27;6.13;;;19.50;99.90;;;;;;4974306;28;20816;-47
2021/11/02 02:47:20;;;;;;;6.27;6.10;;;19.50;99.90;;;;;;4974316;28;20817;-48
2021/11/02 02:49:48;;;;;;;6.70;6.50;;;19.50;99.90;;;;;;4973974;28;20463;-48
2021/11/02 02:52:17;;;;;;;6.80;6.70;;;19.50;99.90;;;;;;4974135;28;20448;-47
2021/11/02 02:54:46;;;;;;;7.30;7.00;;;19.50;99.90;;;;;;4974240;28;20800;-47
2021/11/02 02:57:14;;;;;;;7.47;7.27;;;19.50;99.90;;;;;;4974129;28;20487;-49
2021/11/02 02:59:42;;;;;;;6.90;6.80;;;19.50;99.90;;;;;;4973812;28;20479;-47
2021/11/02 03:02:12;;;;;;;7.00;6.90;;;19.40;99.90;;;;;;4974047;28;20624;-48
2021/11/02 03:04:42;;;;;;;7.23;7.13;;;19.50;99.90;;;;;;4974093;28;20945;-48
2021/11/02 03:07:08;;;;;;;6.80;6.70;;;19.50;99.90;;;;;;4973798;28;20475;-47
2021/11/02 03:09:35;;;;;;;6.83;6.73;;;19.50;99.90;;;;;;4973684;28;20435;-46
2021/11/02 03:12:03;;;;;;;7.10;6.90;;;19.40;99.90;;;;;;4973840;28;20451;-49
2021/11/02 03:14:42;;;;;;;7.23;7.03;;;19.40;99.90;;;;;;4973680;28;20491;-47
2021/11/02 03:17:13;;;;;;;6.70;6.53;;;19.40;99.90;;;;;;4973793;28;20495;-48
2021/11/02 03:50:24;;;;;;;7.33;7.13;;;19.30;99.90;;;;;;4972122;28;20478;-47
2021/11/02 03:55:47;;;;;;;7.07;6.87;;;19.30;99.90;;;;;;4973214;28;20517;-47
2021/11/02 03:58:18;;;;;;;6.83;6.63;;;19.30;99.90;;;;;;4973186;28;20458;-52
2021/11/02 04:01:18;;;;;;;6.20;6.10;;;19.30;99.90;;;;;;4972948;28;20444;-49
2021/11/02 04:23:41;;;;;;;6.67;6.57;;;19.30;99.90;;;;;;4973033;28;20422;-47
2021/11/02 04:29:33;;;;;;;6.57;6.37;;;19.30;99.90;;;;;;4962398;28;20583;-48
2021/11/02 05:08:11;;;;;;;7.43;7.23;;;19.20;99.90;;;;;;4976445;28;20921;-47
2021/11/02 05:11:02;;;;;;;6.50;6.40;;;19.20;99.90;;;;;;4977086;28;20954;-49
2021/11/02 05:13:54;;;;;;;7.43;7.33;;;19.30;99.90;;;;;;4976857;28;20486;-47
2021/11/02 05:47:04;;;;;;;8.30;8.10;;;19.40;99.90;;;;;;4964098;28;20494;-46
2021/11/02 05:49:39;;;;;;;8.20;8.00;;;19.40;99.90;;;;;;4963990;28;20584;-47
2021/11/02 05:55:16;;;;;;;8.93;8.63;;;19.30;99.90;;;;;;4964073;28;20629;-47
2021/11/02 05:57:48;;;;;;;8.67;8.47;;;19.70;99.90;;;;;;4964104;28;20456;-47
2021/11/02 06:00:18;;;;;;;9.63;9.33;;;20.20;99.90;;;;;;4963593;28;20466;-49
2021/11/02 06:03:07;;;;;;;8.40;8.20;;;20.50;99.90;;;;;;4963603;28;20797;-48
2021/11/02 06:05:59;;;;;;;9.13;8.93;;;20.60;99.90;;;;;;4963003;28;20468;-49
2021/11/02 06:23:21;;;;;;;9.13;8.87;;;20.80;99.90;;;;;;4962934;28;20606;-48
2021/11/02 06:28:26;;;;;;;9.80;9.50;;;20.90;99.90;;;;;;4962768;28;21088;-48
2021/11/02 06:30:59;;;;;;;10.50;10.20;;;20.90;99.90;;;;;;4962356;28;20451;-47
2021/11/02 06:33:40;;;;;;;9.50;9.20;;;20.80;99.90;;;;;;4962563;28;20451;-48
2021/11/02 06:36:29;;;;;;;10.20;9.80;;;20.80;99.90;;;;;;4962459;28;20486;-48
2021/11/02 06:39:33;;;;;;;9.13;8.90;;;20.80;99.90;;;;;;4962204;28;20946;-47
2021/11/02 06:42:25;;;;;;;9.40;9.20;;;20.70;99.90;;;;;;4962558;28;20521;-48
2021/11/02 06:56:33;;;;;;;9.30;9.10;;;20.50;99.90;;;;;;4961463;28;20439;-48
2021/11/02 06:59:31;;;;;;;9.70;9.40;;;20.40;99.90;;;;;;4962233;28;20452;-49
2021/11/02 07:16:32;;;;;;;9.67;9.43;;;20.40;99.90;;;;;;4937868;28;20874;-46
2021/11/02 07:19:02;;;;;;;9.63;9.27;;;20.40;99.90;;;;;;4962351;28;20950;-47
2021/11/02 07:21:38;;;;;;;9.83;9.63;;;20.40;99.90;;;;;;4962356;28;20554;-46
2021/11/02 07:24:09;;;;;;;9.77;9.57;;;20.40;99.90;;;;;;4962474;28;20451;-46
2021/11/02 07:26:54;;;;;;;10.23;9.93;;;20.40;99.90;;;;;;4962030;28;20582;-46
2021/11/02 08:47:22;;;;;;;9.13;8.93;;;20.90;99.90;;;;;;4960795;28;20845;-57
2021/11/02 08:49:49;;;;;;;8.40;8.10;;;20.80;99.90;;;;;;4960723;28;20451;-52
2021/11/02 08:52:20;;;;;;;8.50;8.30;;;20.80;99.90;;;;;;4960665;28;20892;-56
2021/11/02 08:54:49;;;;;;;9.00;8.60;;;20.80;99.90;;;;;;4960771;28;20932;-53
2021/11/02 08:57:16;;;;;;;8.93;8.70;;;20.80;99.90;;;;;;4960837;28;20567;-54
2021/11/02 08:59:44;;;;;;;8.97;8.57;;;20.80;99.90;;;;;;4960427;28;20455;-52
2021/11/02 09:02:13;;;;;;;8.37;8.17;;;20.80;99.90;;;;;;4960564;28;20845;-54
2021/11/02 09:04:45;;;;;;;10.47;10.10;;;20.80;99.90;;;;;;4960676;28;20447;-58
2021/11/02 09:07:23;;;;;;;9.47;9.17;;;20.90;99.90;;;;;;4960210;28;20819;-55
2021/11/02 09:09:51;;;;;;;9.73;9.40;;;20.90;99.90;;;;;;4960476;28;20447;-56
2021/11/02 09:12:18;;;;;;;9.17;8.97;;;20.90;99.90;;;;;;4960479;28;20459;-58
2021/11/02 09:14:47;;;;;;;9.47;9.27;;;20.80;99.90;;;;;;4960431;28;20511;-58
2021/11/02 09:17:15;;;;;;;9.43;9.23;;;20.70;99.90;;;;;;4960405;28;20491;-58
2021/11/02 09:19:42;;;;;;;9.90;9.60;;;20.70;99.90;;;;;;4961277;28;21055;-58
2021/11/02 09:22:12;;;;;;;9.30;9.00;;;20.70;99.90;;;;;;4963791;28;20451;-58
2021/11/02 09:24:43;;;;;;;10.53;10.10;;;20.70;99.90;;;;;;4963964;28;20470;-56
2021/11/02 09:27:10;;;;;;;9.50;9.20;;;20.70;99.90;;;;;;4963786;28;20852;-57
2021/11/02 09:29:37;;;;;;;9.53;9.13;;;20.60;99.90;;;;;;4963494;28;20458;-55
2021/11/02 09:32:08;;;;;;;9.87;9.57;;;20.70;99.90;;;;;;4963678;28;20451;-56
2021/11/02 09:34:35;;;;;;;9.23;9.03;;;20.60;99.90;;;;;;4963640;28;20493;-55
2021/11/02 09:37:08;;;;;;;9.77;9.57;;;20.70;99.90;;;;;;4963599;28;20557;-52
2021/11/02 09:39:40;;;;;;;9.30;9.10;;;20.70;99.90;;;;;;4963669;28;20962;-55
2021/11/02 09:42:54;;;;;;;8.70;8.50;;;20.70;99.90;;;;;;4963636;28;20867;-57
2021/11/02 09:46:02;;;;;;;9.40;9.13;;;20.70;99.90;;;;;;4963281;28;20444;-59
2021/11/02 09:49:01;;;;;;;8.77;8.47;;;20.80;99.90;;;;;;4963710;28;20455;-50
2021/11/02 09:52:03;;;;;;;8.50;8.20;;;20.80;99.90;;;;;;4963629;28;20475;-54
2021/11/02 09:55:10;;;;;;;9.23;9.03;;;20.80;99.90;;;;;;4963559;28;20490;-55
2021/11/02 09:58:02;;;;;;;9.37;9.17;;;20.80;99.90;;;;;;4963170;28;20590;-59
2021/11/02 10:00:46;;;;;;;8.70;8.50;;;20.80;99.90;;;;;;4963368;28;21013;-57
2021/11/02 10:03:51;;;;;;;9.33;9.13;;;20.80;99.90;;;;;;4963114;28;20459;-57
2021/11/02 10:06:51;;;;;;;9.40;9.20;;;20.80;99.90;;;;;;4962991;28;20463;-55
2021/11/02 10:09:30;;;;;;;10.27;9.97;;;20.80;99.90;;;;;;4963424;28;20949;-62
2021/11/02 10:12:13;;;;;;;9.10;8.90;;;20.80;99.90;;;;;;4962837;28;20451;-61
2021/11/02 10:15:01;;;;;;;8.90;8.70;;;20.90;99.90;;;;;;4962915;28;20483;-61
2021/11/02 10:17:59;;;;;;;9.20;9.00;;;20.90;99.90;;;;;;4962765;28;20478;-60
2021/11/02 10:20:45;;;;;;;9.77;9.57;;;20.80;99.90;;;;;;4960582;28;20466;-58
2021/11/02 10:23:26;;;;;;;8.80;8.60;;;20.80;99.90;;;;;;4962782;28;20448;-61
2021/11/02 10:26:24;;;;;;;8.70;8.50;;;20.80;99.90;;;;;;4952064;28;20484;-61
2021/11/02 10:29:31;;;;;;;9.30;9.10;;;20.80;99.90;;;;;;4948864;28;20455;-59
2021/11/02 10:32:06;;;;;;;8.60;8.40;;;20.90;99.90;;;;;;4961227;28;20456;-60
2021/11/02 10:34:46;;;;;;;9.30;9.10;;;20.90;99.90;;;;;;4962335;28;20457;-62
2021/11/02 10:37:26;;;;;;;9.07;8.87;;;20.90;99.90;;;;;;4962246;28;20475;-61
2021/11/02 10:40:11;;;;;;;10.87;10.13;;;21.00;99.90;;;;;;4962178;28;20478;-61
2021/11/02 10:43:24;;;;;;;8.60;8.40;;;21.00;99.90;;;;;;4961127;28;21044;-60
2021/11/02 10:46:00;;;;;;;9.87;9.67;;;21.00;99.90;;;;;;4939851;28;20475;-56
2021/11/02 10:48:42;;;;;;;9.13;8.83;;;21.00;99.90;;;;;;4942870;28;20782;-56
2021/11/02 10:51:23;;;;;;;8.83;8.53;;;20.90;99.90;;;;;;4942878;28;20491;-58
2021/11/02 10:53:59;;;;;;;9.50;9.10;;;20.90;99.90;;;;;;4942823;28;20456;-57
2021/11/02 10:56:42;;;;;;;9.30;8.90;;;21.00;99.90;;;;;;4942588;28;20498;-54
2021/11/02 10:59:14;;;;;;;11.50;11.00;;;20.90;99.90;;;;;;4942791;28;20448;-55
2021/11/02 11:01:46;;;;;;;8.83;8.63;;;20.90;99.90;;;;;;4942634;28;20728;-52
2021/11/02 11:04:15;;;;;;;9.47;8.97;;;20.90;99.90;;;;;;4942585;28;20955;-58
2021/11/02 11:06:46;;;;;;;9.07;8.63;;;20.80;99.90;;;;;;4942375;28;20948;-57
2021/11/02 11:09:14;;;;;;;9.17;8.70;;;20.80;99.90;;;;;;4942479;28;20932;-49
2021/11/02 11:11:46;;;;;;;9.57;9.17;;;20.80;99.90;;;;;;4942250;28;20463;-52
2021/11/02 11:14:15;;;;;;;8.80;8.40;;;20.80;99.90;;;;;;4942311;28;20899;-56
2021/11/02 11:16:46;;;;;;;8.90;8.57;;;20.80;99.90;;;;;;4942137;28;20496;-54
2021/11/02 11:19:27;;;;;;;9.10;8.80;;;20.70;99.90;;;;;;4942199;28;20459;-55
2021/11/02 11:21:57;;;;;;;9.27;8.87;;;20.70;99.90;;;;;;4942227;28;20449;-58
2021/11/02 11:24:34;;;;;;;9.57;8.97;;;20.70;99.90;;;;;;4957998;28;20760;-53
2021/11/02 11:27:06;;;;;;;8.90;8.60;;;20.80;99.90;;;;;;4961361;28;20773;-49
2021/11/02 11:29:44;;;;;;;8.70;8.40;;;20.80;99.90;;;;;;4961242;28;20518;-53
2021/11/02 11:32:18;;;;;;;8.07;7.77;;;20.80;99.90;;;;;;4961463;28;21122;-54
2021/11/02 11:34:50;;;;;;;8.27;7.90;;;20.80;99.90;;;;;;4961529;28;20455;-55
2021/11/02 11:37:22;;;;;;;8.23;8.03;;;20.90;99.90;;;;;;4961411;28;20475;-52
2021/11/02 11:39:52;;;;;;;9.17;8.87;;;20.80;99.90;;;;;;4961340;28;20460;-55
2021/11/02 11:42:25;;;;;;;8.17;7.87;;;20.90;99.90;;;;;;4960695;28;20448;-56
2021/11/02 11:45:04;;;;;;;9.20;8.80;;;20.90;99.90;;;;;;4961213;28;20455;-56
2021/11/02 11:47:36;;;;;;;8.67;8.47;;;20.80;99.90;;;;;;4961348;28;20965;-56
2021/11/02 11:50:25;;;;;;;8.47;8.27;;;20.80;99.90;;;;;;4960759;28;20448;-54
2021/11/02 11:52:59;;;;;;;9.10;8.80;;;20.80;99.90;;;;;;4961262;28;20888;-52
2021/11/02 11:55:34;;;;;;;8.97;8.67;;;20.80;99.90;;;;;;4961030;28;20581;-55
2021/11/02 11:58:09;;;;;;;9.10;8.70;;;20.90;99.90;;;;;;4961018;28;20451;-54
2021/11/02 12:00:41;;;;;;;8.77;8.47;;;20.90;99.90;;;;;;4960827;28;20451;-50
2021/11/02 12:03:42;;;;;;;10.13;9.77;;;20.90;99.90;;;;;;4961392;28;20452;-56
2021/11/02 12:06:25;;;;;;;9.57;9.17;;;20.90;99.90;;;;;;4961023;28;20474;-56
2021/11/02 12:08:59;;;;;;;9.00;8.80;;;20.90;99.90;;;;;;4960811;28;20447;-53
2021/11/02 12:11:32;;;;;;;9.77;9.30;;;20.90;99.90;;;;;;4960956;28;20451;-60
2021/11/02 12:14:12;;;;;;;9.90;9.30;;;21.00;99.90;;;;;;4960817;28;20471;-61
2021/11/02 12:16:46;;;;;;;18.87;16.93;;;21.00;99.90;;;;;;4960849;28;21051;-56
2021/11/02 12:19:21;;;;;;;28.20;21.77;;;21.00;99.90;;;;;;4960751;28;20450;-58
2021/11/02 12:22:03;;;;;;;28.73;22.23;;;21.00;99.90;;;;;;4960800;28;20513;-60
2021/11/02 12:24:34;;;;;;;24.37;18.23;;;21.00;99.90;;;;;;4960960;28;20451;-60
2021/11/02 12:27:18;;;;;;;17.37;15.93;;;21.10;99.90;;;;;;4960693;28;20506;-60
2021/11/02 12:29:47;;;;;;;18.63;16.83;;;21.20;99.90;;;;;;4960245;28;20467;-59
2021/11/02 12:32:23;;;;;;;15.60;14.00;;;21.20;99.90;;;;;;4960620;28;20459;-56
2021/11/02 12:34:55;;;;;;;14.80;13.50;;;21.20;99.90;;;;;;4960732;28;20469;-55
2021/11/02 12:37:28;;;;;;;16.10;14.57;;;21.20;99.90;;;;;;4958947;28;20972;-60
2021/11/02 12:40:13;;;;;;;15.30;14.20;;;21.30;99.90;;;;;;4960432;28;21024;-57
2021/11/02 12:42:46;;;;;;;15.80;14.50;;;21.30;99.90;;;;;;4960322;28;20451;-59
2021/11/02 12:45:18;;;;;;;15.27;13.93;;;21.70;99.90;;;;;;4957369;28;20467;-59
2021/11/02 12:47:59;;;;;;;15.63;14.27;;;21.80;99.90;;;;;;4955282;28;20779;-58
2021/11/02 12:50:41;;;;;;;13.83;12.90;;;22.00;99.90;;;;;;4960861;28;20493;-53
2021/11/02 12:53:18;;;;;;;13.73;12.73;;;22.30;99.90;;;;;;4960771;28;20444;-58
2021/11/02 12:55:51;;;;;;;14.13;12.77;;;22.20;99.90;;;;;;4963091;28;20494;-56
2021/11/02 12:58:25;;;;;;;13.40;12.60;;;22.20;99.90;;;;;;4964199;28;20466;-59
2021/11/02 13:01:02;;;;;;;12.57;11.63;;;22.00;99.90;;;;;;4963867;28;20452;-55
2021/11/02 13:03:39;;;;;;;12.90;12.00;;;21.80;99.90;;;;;;4964515;28;21262;-57
2021/11/02 13:06:11;;;;;;;12.73;11.87;;;21.80;99.90;;;;;;4963828;28;20467;-54
2021/11/02 13:08:54;;;;;;;10.93;10.33;;;21.70;99.90;;;;;;4963978;28;20451;-55
2021/11/02 13:11:23;;;;;;;12.87;12.00;;;21.60;99.90;;;;;;4964060;28;20897;-54
2021/11/02 13:14:04;;;;;;;12.07;11.37;;;21.60;99.90;;;;;;4963762;28;20952;-50
2021/11/02 13:16:52;;;;;;;11.37;10.70;;;21.50;99.90;;;;;;4963761;28;20502;-53
2021/11/02 13:19:21;;;;;;;11.83;11.23;;;21.40;99.90;;;;;;4963517;28;20965;-51
2021/11/02 13:21:48;;;;;;;13.03;12.23;;;21.40;99.90;;;;;;4963727;28;20451;-50
2021/11/02 13:24:28;;;;;;;12.43;11.60;;;21.40;99.90;;;;;;4963562;28;20542;-48
2021/11/02 13:26:57;;;;;;;12.50;11.90;;;21.40;99.90;;;;;;4963394;28;20602;-50
2021/11/02 13:29:27;;;;;;;13.13;12.43;;;21.30;99.90;;;;;;4963333;28;20578;-54
2021/11/02 13:32:02;;;;;;;11.60;11.10;;;21.30;99.90;;;;;;4963694;28;20635;-53
2021/11/02 13:34:41;;;;;;;11.40;10.90;;;21.20;99.90;;;;;;4963723;28;20985;-53
2021/11/02 13:37:10;;;;;;;11.57;10.90;;;21.20;99.90;;;;;;4963296;28;20495;-59
2021/11/02 13:39:57;;;;;;;10.93;10.27;;;21.20;99.90;;;;;;4962154;28;20467;-49
2021/11/02 13:42:45;;;;;;;11.83;11.33;;;21.20;99.90;;;;;;4949413;28;20472;-51
2021/11/02 13:45:22;;;;;;;11.70;11.20;;;21.20;99.90;;;;;;4956842;28;20533;-49
2021/11/02 13:47:49;;;;;;;12.27;11.57;;;21.20;99.90;;;;;;4948597;28;20476;-52
2021/11/02 13:50:16;;;;;;;10.20;9.80;;;21.20;99.90;;;;;;4954658;28;20822;-49
2021/11/02 13:52:43;;;;;;;10.63;10.13;;;21.10;99.90;;;;;;4948322;28;20975;-52
2021/11/02 13:55:11;;;;;;;10.13;9.60;;;21.10;99.90;;;;;;4950676;28;20931;-50
2021/11/02 13:57:38;;;;;;;9.90;9.40;;;21.10;99.90;;;;;;4952603;28;20562;-52
2021/11/02 14:00:06;;;;;;;10.30;9.80;;;21.10;99.90;;;;;;4955650;28;20865;-51
2021/11/02 14:02:35;;;;;;;10.77;10.20;;;21.20;99.90;;;;;;4958440;28;20451;-49
2021/11/02 14:05:01;;;;;;;10.73;10.23;;;21.20;99.90;;;;;;4959534;28;21000;-52
2021/11/02 14:07:31;;;;;;;10.13;9.70;;;21.20;99.90;;;;;;4951613;28;20618;-51
2021/11/02 14:10:01;;;;;;;10.20;9.60;;;21.30;99.90;;;;;;4948284;28;20453;-53
2021/11/02 14:12:31;;;;;;;10.53;10.03;;;21.30;99.90;;;;;;4952902;28;21021;-54
2021/11/02 14:15:17;;;;;;;10.23;9.63;;;21.40;99.90;;;;;;4943791;28;20449;-56
2021/11/02 14:17:46;;;;;;;11.57;11.07;;;21.50;99.90;;;;;;4947376;28;20484;-60
2021/11/02 14:20:35;;;;;;;11.00;10.50;;;21.50;99.90;;;;;;4953400;28;20525;-60
2021/11/02 14:23:03;;;;;;;11.70;11.20;;;21.60;99.90;;;;;;4950902;28;20457;-56
2021/11/02 14:25:33;;;;;;;10.17;9.83;;;21.50;99.90;;;;;;4958799;28;20452;-61
2021/11/02 14:28:02;;;;;;;10.37;9.97;;;21.40;99.90;;;;;;4954960;28;20942;-58
2021/11/02 14:30:38;;;;;;;9.97;9.60;;;21.40;99.90;;;;;;4951602;28;20456;-56
2021/11/02 14:33:05;;;;;;;10.63;10.33;;;21.30;99.90;;;;;;4954256;28;20439;-56
2021/11/02 14:35:51;;;;;;;11.03;10.60;;;21.30;99.90;;;;;;4959054;28;20532;-56
2021/11/02 14:38:21;;;;;;;11.77;11.27;;;21.30;99.90;;;;;;4949470;28;20475;-55
2021/11/02 14:40:49;;;;;;;11.23;10.83;;;21.20;99.90;;;;;;4945715;28;20807;-57
2021/11/02 14:43:23;;;;;;;10.57;10.17;;;21.20;99.90;;;;;;4948478;28;20463;-53
2021/11/02 14:45:51;;;;;;;10.90;10.40;;;21.20;99.90;;;;;;4943237;28;20452;-52
2021/11/02 14:48:38;;;;;;;10.73;9.90;;;21.20;99.90;;;;;;4955438;28;20836;-55
2021/11/02 14:51:07;;;;;;;10.83;10.43;;;21.10;99.90;;;;;;4958765;28;20479;-57
2021/11/02 14:53:36;;;;;;;9.57;9.20;;;21.10;99.90;;;;;;4944208;28;20455;-57
2021/11/02 14:56:06;;;;;;;10.03;9.63;;;21.10;99.90;;;;;;4943448;28;21066;-52
2021/11/02 14:58:49;;;;;;;11.07;10.67;;;21.10;99.90;;;;;;4945772;28;20465;-62
2021/11/02 15:01:19;;;;;;;9.50;9.30;;;21.00;99.90;;;;;;4949522;28;20456;-58
2021/11/02 15:03:52;;;;;;;10.07;9.73;;;21.00;99.90;;;;;;4942958;28;20455;-58
2021/11/02 15:06:20;;;;;;;10.37;10.00;;;21.00;99.90;;;;;;4942875;28;20487;-55
2021/11/02 15:08:47;;;;;;;9.73;9.43;;;20.90;99.90;;;;;;4954893;28;20459;-53
2021/11/02 15:11:16;;;;;;;9.67;9.30;;;20.90;99.90;;;;;;4958725;28;20540;-55
2021/11/02 15:13:49;;;;;;;9.97;9.63;;;20.90;99.90;;;;;;4951287;28;20447;-53
2021/11/02 15:16:17;;;;;;;10.60;10.23;;;20.80;99.90;;;;;;4958677;28;20483;-51
2021/11/02 15:18:45;;;;;;;9.90;9.60;;;20.80;99.90;;;;;;4942937;28;20453;-51
2021/11/02 15:21:16;;;;;;;10.87;10.23;;;20.90;99.90;;;;;;4952176;28;20455;-53
2021/11/02 15:23:46;;;;;;;9.33;9.13;;;20.90;99.90;;;;;;4949731;28;21034;-49
2021/11/02 15:26:14;;;;;;;10.00;9.60;;;20.90;99.90;;;;;;4942355;28;20476;-52
2021/11/02 15:28:43;;;;;;;9.93;9.63;;;20.90;99.90;;;;;;4945844;28;20460;-49
2021/11/02 15:31:12;;;;;;;8.83;8.63;;;20.90;99.90;;;;;;4942450;28;20537;-49
2021/11/02 15:33:42;;;;;;;10.67;10.27;;;20.90;99.90;;;;;;4948366;28;20985;-49
2021/11/02 15:36:11;;;;;;;10.83;10.50;;;20.90;99.90;;;;;;4943403;28;20477;-53
2021/11/02 15:38:39;;;;;;;9.20;8.90;;;20.90;99.90;;;;;;4951936;28;20463;-54
2021/11/02 15:41:22;;;;;;;8.83;8.63;;;20.90;99.90;;;;;;4950283;28;20841;-55
2021/11/02 15:43:56;;;;;;;9.53;9.13;;;20.90;99.90;;;;;;4958263;28;20575;-49
2021/11/02 15:46:36;;;;;;;8.80;8.60;;;20.90;99.90;;;;;;4942101;28;20490;-52
2021/11/02 15:49:05;;;;;;;9.67;9.37;;;20.90;99.90;;;;;;4951241;28;21247;-50
2021/11/02 15:51:34;;;;;;;9.07;8.87;;;20.90;99.90;;;;;;4941905;28;21068;-51
2021/11/02 15:54:07;;;;;;;9.43;8.93;;;20.80;99.90;;;;;;4946982;28;20917;-52
2021/11/02 15:56:34;;;;;;;10.53;10.20;;;20.70;99.90;;;;;;4950359;28;20570;-53
2021/11/02 15:59:03;;;;;;;9.50;9.20;;;20.70;99.90;;;;;;4945632;28;20882;-51
2021/11/02 16:01:43;;;;;;;10.73;10.33;;;20.70;99.90;;;;;;4956938;28;20452;-58
2021/11/02 16:04:12;;;;;;;9.77;9.47;;;20.70;99.90;;;;;;4958168;28;20818;-61
2021/11/02 16:07:03;;;;;;;9.20;8.90;;;20.70;99.90;;;;;;4958152;28;20468;-56
2021/11/02 16:09:51;;;;;;;9.13;8.87;;;20.70;99.90;;;;;;4945840;28;20467;-56
2021/11/02 16:12:23;;;;;;;10.73;10.20;;;20.80;99.90;;;;;;4942994;28;20452;-52
2021/11/02 16:14:58;;;;;;;9.30;9.07;;;20.70;99.90;;;;;;4945181;28;20463;-53
2021/11/02 16:17:28;;;;;;;8.77;8.53;;;20.70;99.90;;;;;;4947336;28;20510;-52
2021/11/02 16:19:57;;;;;;;9.83;9.33;;;20.70;99.90;;;;;;4957535;28;20454;-53
2021/11/02 16:22:25;;;;;;;9.60;9.30;;;20.80;99.90;;;;;;4953634;28;20796;-52
2021/11/02 16:25:03;;;;;;;9.83;9.63;;;20.80;99.90;;;;;;4941960;28;20457;-50
2021/11/02 16:27:30;;;;;;;8.83;8.63;;;20.80;99.90;;;;;;4945892;28;20487;-53
2021/11/02 16:29:57;;;;;;;8.73;8.43;;;20.80;99.90;;;;;;4958747;28;21150;-53
2021/11/02 16:32:27;;;;;;;9.10;8.40;;;20.80;99.90;;;;;;4953936;28;20452;-51
2021/11/02 16:34:55;;;;;;;9.73;9.37;;;20.80;99.90;;;;;;4950800;28;20451;-53
2021/11/02 16:37:32;;;;;;;9.37;9.07;;;20.80;99.90;;;;;;4950256;28;21081;-55
2021/11/02 16:40:19;;;;;;;9.03;8.83;;;20.80;99.90;;;;;;4945406;28;20788;-53
2021/11/02 16:42:55;;;;;;;9.63;9.33;;;20.80;99.90;;;;;;4945438;28;20456;-53
2021/11/02 16:45:23;;;;;;;9.13;8.93;;;20.80;99.90;;;;;;4960617;28;20478;-53
2021/11/02 16:47:56;;;;;;;9.13;8.63;;;20.80;99.90;;;;;;4953365;28;20471;-56
2021/11/02 16:50:28;;;;;;;10.03;9.73;;;20.80;99.90;;;;;;4959616;28;20462;-55
2021/11/02 16:53:08;;;;;;;9.93;9.67;;;20.80;99.90;;;;;;4945431;28;20448;-57
2021/11/02 16:55:36;;;;;;;10.13;9.83;;;20.80;99.90;;;;;;4950382;28;20562;-56
2021/11/02 16:58:25;;;;;;;8.93;8.70;;;20.80;99.90;;;;;;4946305;28;20663;-51
2021/11/02 17:01:17;;;;;;;9.17;8.97;;;20.80;99.90;;;;;;4946852;28;20819;-53
2021/11/02 17:03:46;;;;;;;9.23;8.93;;;20.70;99.90;;;;;;4952210;28;20447;-51
2021/11/02 17:06:15;;;;;;;9.10;8.77;;;20.70;99.90;;;;;;4958638;28;20468;-51
2021/11/02 17:09:10;;;;;;;8.97;8.67;;;20.70;99.90;;;;;;4950151;28;20452;-53
2021/11/02 17:11:58;;;;;;;9.67;9.37;;;20.70;99.90;;;;;;4950510;28;20480;-50
2021/11/02 17:14:27;;;;;;;9.70;9.10;;;20.70;99.90;;;;;;4943992;28;20506;-57
2021/11/02 17:16:58;;;;;;;10.27;9.30;;;20.70;99.90;;;;;;4954896;28;20507;-56
2021/11/02 17:19:28;;;;;;;10.53;10.13;;;20.70;99.90;;;;;;4945306;28;21251;-51
2021/11/02 17:21:57;;;;;;;9.27;8.97;;;20.70;99.90;;;;;;4948472;28;20460;-52
2021/11/02 17:24:24;;;;;;;10.17;9.87;;;20.70;99.90;;;;;;4956979;28;20448;-59
2021/11/02 17:26:51;;;;;;;10.17;9.97;;;20.60;99.90;;;;;;4955216;28;20472;-53
2021/11/02 17:29:18;;;;;;;10.70;10.40;;;20.60;99.90;;;;;;4944375;28;20460;-56